createdAt,value
2023-01-07T00:01:01.552Z,54328.06
2023-01-07T00:03:28.675Z,54326.00
2023-01-07T00:06:16.480Z,54332.22
2023-01-07T00:08:45.209Z,54303.25
2023-01-07T00:11:13.785Z,54326.00
2023-01-07T00:13:40.192Z,54317.72
2023-01-07T00:16:09.327Z,54315.66
2023-01-07T00:18:36.442Z,54292.91
2023-01-07T00:21:05.917Z,54315.66
2023-01-07T00:23:33.480Z,54319.81
2023-01-07T00:26:11.978Z,54311.53
2023-01-07T00:28:41.003Z,54292.91
2023-01-07T00:31:12.620Z,54288.78
2023-01-07T00:34:05.757Z,54297.06
2023-01-07T00:36:50.468Z,54319.81
2023-01-07T00:39:20.845Z,54278.44
2023-01-07T00:42:06.905Z,54350.81
2023-01-07T00:44:33.837Z,54288.78
2023-01-07T00:47:00.541Z,54311.53
2023-01-07T00:49:27.492Z,54297.06
2023-01-07T00:51:54.005Z,54245.34
2023-01-07T00:54:20.510Z,54276.38
2023-01-07T00:56:46.916Z,54237.09
2023-01-07T00:59:13.363Z,54414.91
2023-01-07T01:01:40.046Z,54290.84
2023-01-07T01:04:08.067Z,54268.09
2023-01-07T01:06:34.561Z,54303.25
2023-01-07T01:09:00.984Z,54239.16
2023-01-07T01:11:27.410Z,54280.50
2023-01-07T01:13:53.841Z,54270.16
2023-01-07T01:16:20.399Z,54294.97
2023-01-07T01:18:47.000Z,54280.50
2023-01-07T01:21:14.747Z,54299.13
2023-01-07T01:23:42.438Z,54249.50
2023-01-07T01:26:12.408Z,54290.84
2023-01-07T01:28:38.986Z,54284.66
2023-01-07T01:31:05.998Z,54309.47
2023-01-07T01:33:32.447Z,54274.31
2023-01-07T01:35:58.874Z,54280.50
2023-01-07T01:38:25.299Z,54309.47
2023-01-07T01:40:51.738Z,54237.09
2023-01-07T01:43:33.417Z,54301.19
2023-01-07T01:46:06.520Z,54241.22
2023-01-07T01:48:34.609Z,54290.84
2023-01-07T01:51:02.147Z,54270.16
2023-01-07T01:53:30.705Z,54280.50
2023-01-07T01:56:09.248Z,54253.63
2023-01-07T01:58:46.093Z,54290.84
2023-01-07T02:01:13.186Z,54282.56
2023-01-07T02:03:39.836Z,54284.66
2023-01-07T02:06:07.566Z,54301.19
2023-01-07T02:08:34.115Z,54251.56
2023-01-07T02:11:34.855Z,54301.19
2023-01-07T02:14:10.180Z,54305.31
2023-01-07T02:16:45.098Z,54274.31
2023-01-07T02:19:29.691Z,54270.16
2023-01-07T02:22:06.344Z,54253.63
2023-01-07T02:24:54.547Z,54286.72
2023-01-07T02:27:31.735Z,54274.31
2023-01-07T02:30:25.221Z,54266.03
2023-01-07T02:33:13.005Z,54284.66
2023-01-07T02:35:58.199Z,54305.31
2023-01-07T02:38:40.754Z,54261.91
2023-01-07T02:41:44.942Z,54276.38
2023-01-07T02:44:25.895Z,54259.84
2023-01-07T02:47:17.322Z,54255.69
2023-01-07T02:49:47.337Z,54282.56
2023-01-07T02:52:34.595Z,54290.84
2023-01-07T02:55:02.943Z,54294.97
2023-01-07T02:58:04.710Z,54261.91
2023-01-07T03:00:42.707Z,54274.31
2023-01-07T03:03:25.634Z,54266.03
2023-01-07T03:05:57.452Z,54261.91
2023-01-07T03:08:35.311Z,54276.38
2023-01-07T03:11:07.902Z,54278.44
2023-01-07T03:13:41.547Z,54261.91
2023-01-07T03:16:17.573Z,54282.56
2023-01-07T03:18:50.626Z,54276.38
2023-01-07T03:21:19.178Z,54270.16
2023-01-07T03:23:51.986Z,54282.56
2023-01-07T03:26:21.641Z,54278.44
2023-01-07T03:28:49.377Z,54243.28
2023-01-07T03:31:15.927Z,54286.72
2023-01-07T03:34:00.615Z,54270.16
2023-01-07T03:36:34.266Z,54274.31
2023-01-07T03:39:01.657Z,54241.22
2023-01-07T03:41:46.528Z,54350.81
2023-01-07T03:44:12.946Z,54266.03
2023-01-07T03:46:39.476Z,54247.44
2023-01-07T03:49:05.958Z,54261.91
2023-01-07T03:51:32.453Z,54342.53
2023-01-07T03:53:58.933Z,54235.03
2023-01-07T03:56:25.360Z,54259.84
2023-01-07T03:58:51.790Z,54245.34
2023-01-07T04:01:18.354Z,54220.53
2023-01-07T04:03:44.873Z,54243.28
2023-01-07T04:06:11.341Z,54224.69
2023-01-07T04:08:37.912Z,54354.94
2023-01-07T04:11:04.446Z,54274.31
2023-01-07T04:13:30.885Z,54245.34
2023-01-07T04:15:57.282Z,54348.75
2023-01-07T04:18:23.703Z,54245.34
2023-01-07T04:20:50.099Z,54241.22
2023-01-07T04:23:16.834Z,54278.44
2023-01-07T04:25:47.060Z,54276.38
2023-01-07T04:28:13.565Z,54230.88
2023-01-07T04:30:40.036Z,54191.59
2023-01-07T04:33:07.032Z,54237.09
2023-01-07T04:35:33.830Z,54228.81
2023-01-07T04:38:00.465Z,54220.53
2023-01-07T04:40:27.041Z,54261.91
2023-01-07T04:42:53.487Z,54245.34
2023-01-07T04:45:19.916Z,54247.44
2023-01-07T04:47:46.345Z,54212.28
2023-01-07T04:50:12.898Z,54177.13
2023-01-07T04:52:39.447Z,54237.09
2023-01-07T04:55:06.635Z,54249.50
2023-01-07T04:57:33.025Z,54249.50
2023-01-07T04:59:59.572Z,54232.94
2023-01-07T05:02:26.007Z,54218.47
2023-01-07T05:04:52.388Z,54216.41
2023-01-07T05:07:18.912Z,54239.16
2023-01-07T05:09:45.356Z,54216.41
2023-01-07T05:12:11.793Z,54249.50
2023-01-07T05:14:39.374Z,54253.63
2023-01-07T05:17:05.794Z,54216.41
2023-01-07T05:19:32.215Z,54228.81
2023-01-07T05:22:00.180Z,54189.53
2023-01-07T05:24:27.363Z,54210.19
2023-01-07T05:26:53.782Z,54208.13
2023-01-07T05:29:20.194Z,54226.75
2023-01-07T05:31:46.635Z,54208.13
2023-01-07T05:34:13.116Z,54201.94
2023-01-07T05:36:39.528Z,54206.06
2023-01-07T05:39:06.089Z,54311.53
2023-01-07T05:41:32.506Z,54228.81
2023-01-07T05:43:58.896Z,54216.41
2023-01-07T05:46:25.566Z,54222.59
2023-01-07T05:48:54.075Z,54338.41
2023-01-07T05:51:20.809Z,54201.94
2023-01-07T05:53:47.220Z,54216.41
2023-01-07T05:56:13.618Z,54179.19
2023-01-07T05:58:40.072Z,54220.53
2023-01-07T06:01:06.534Z,54204.00
2023-01-07T06:03:33.027Z,54348.75
2023-01-07T06:06:06.839Z,54204.00
2023-01-07T06:08:35.115Z,54195.72
2023-01-07T06:11:01.512Z,54183.31
2023-01-07T06:13:28.659Z,54177.13
2023-01-07T06:16:03.205Z,54183.31
2023-01-07T06:18:29.680Z,54187.47
2023-01-07T06:20:56.134Z,54183.31
2023-01-07T06:23:22.825Z,54189.53
2023-01-07T06:25:49.231Z,54179.19
2023-01-07T06:28:15.769Z,54181.25
2023-01-07T06:30:44.936Z,54199.88
2023-01-07T06:33:11.422Z,54305.31
2023-01-07T06:35:37.815Z,54195.72
2023-01-07T06:38:04.318Z,54175.06
2023-01-07T06:40:30.841Z,54166.78
2023-01-07T06:42:57.244Z,54317.72
2023-01-07T06:45:23.670Z,54179.19
2023-01-07T06:47:50.382Z,54187.47
2023-01-07T06:50:17.397Z,54193.66
2023-01-07T06:52:43.798Z,54336.34
2023-01-07T06:55:10.751Z,54243.28
2023-01-07T06:57:37.139Z,54237.09
2023-01-07T07:00:04.202Z,54210.19
2023-01-07T07:02:31.116Z,54183.31
2023-01-07T07:04:59.977Z,54179.19
2023-01-07T07:07:26.435Z,54230.88
2023-01-07T07:09:52.825Z,54286.72
2023-01-07T07:12:19.653Z,54208.13
2023-01-07T07:14:46.190Z,54204.00
2023-01-07T07:17:12.725Z,54239.16
2023-01-07T07:19:39.106Z,54222.59
2023-01-07T07:22:05.555Z,54251.56
2023-01-07T07:24:31.973Z,54220.53
2023-01-07T07:26:59.933Z,54216.41
2023-01-07T07:29:26.645Z,54230.88
2023-01-07T07:31:53.035Z,54199.88
2023-01-07T07:34:19.443Z,54294.97
2023-01-07T07:36:46.060Z,54239.16
2023-01-07T07:39:13.272Z,54204.00
2023-01-07T07:41:39.683Z,54237.09
2023-01-07T07:44:06.092Z,54241.22
2023-01-07T07:46:32.626Z,54204.00
2023-01-07T07:48:59.201Z,54214.34
2023-01-07T07:51:25.639Z,54230.88
2023-01-07T07:53:52.076Z,54241.22
2023-01-07T07:56:18.807Z,54197.78
2023-01-07T07:58:45.220Z,54212.28
2023-01-07T08:01:11.748Z,54237.09
2023-01-07T08:03:38.287Z,54245.34
2023-01-07T08:06:05.631Z,54195.72
2023-01-07T08:08:32.170Z,54220.53
2023-01-07T08:10:58.652Z,54230.88
2023-01-07T08:13:25.785Z,54216.41
2023-01-07T08:15:52.215Z,54224.69
2023-01-07T08:18:19.695Z,54228.81
2023-01-07T08:20:47.019Z,54237.09
2023-01-07T08:23:13.538Z,54237.09
2023-01-07T08:25:40.033Z,54259.84
2023-01-07T08:28:06.413Z,54245.34
2023-01-07T08:30:32.854Z,54222.59
2023-01-07T08:32:59.446Z,54235.03
2023-01-07T08:35:26.409Z,54237.09
2023-01-07T08:37:52.869Z,54214.34
2023-01-07T08:40:19.378Z,54216.41
2023-01-07T08:42:45.770Z,54220.53
2023-01-07T08:45:12.603Z,54199.88
2023-01-07T08:47:39.079Z,54241.22
2023-01-07T08:50:05.801Z,54199.88
2023-01-07T08:52:32.196Z,54263.97
2023-01-07T08:54:58.645Z,54204.00
2023-01-07T08:57:25.042Z,54218.47
2023-01-07T08:59:51.635Z,54228.81
2023-01-07T09:02:19.598Z,54206.06
2023-01-07T09:04:46.362Z,54232.94
2023-01-07T09:07:12.796Z,54199.88
2023-01-07T09:09:39.262Z,54230.88
2023-01-07T09:12:06.250Z,54224.69
2023-01-07T09:14:32.641Z,54282.56
2023-01-07T09:17:00.635Z,54241.22
2023-01-07T09:19:27.546Z,54373.56
2023-01-07T09:21:53.950Z,54286.72
2023-01-07T09:24:20.356Z,54197.78
2023-01-07T09:26:46.787Z,54195.72
2023-01-07T09:29:13.297Z,54172.97
2023-01-07T09:31:39.758Z,54195.72
2023-01-07T09:34:06.383Z,54338.41
2023-01-07T09:36:33.555Z,54197.78
2023-01-07T09:39:00.081Z,54204.00
2023-01-07T09:41:51.444Z,54261.91
2023-01-07T09:44:23.795Z,54235.03
2023-01-07T09:46:51.271Z,54224.69
2023-01-07T09:49:19.471Z,54226.75
2023-01-07T09:51:54.297Z,54214.34
2023-01-07T09:54:30.680Z,54241.22
2023-01-07T09:56:57.160Z,54232.94
2023-01-07T09:59:23.605Z,54230.88
2023-01-07T10:01:58.429Z,54241.22
2023-01-07T10:05:10.221Z,54251.56
2023-01-07T10:08:28.994Z,54232.94
2023-01-07T10:11:03.383Z,54204.00
2023-01-07T10:13:50.488Z,54357.03
2023-01-07T10:16:50.041Z,54230.88
2023-01-07T10:19:34.802Z,54257.75
2023-01-07T10:22:05.048Z,54208.13
2023-01-07T10:24:38.267Z,54263.97
2023-01-07T10:27:10.615Z,54284.66
2023-01-07T10:29:42.041Z,54286.72
2023-01-07T10:32:13.983Z,54261.91
2023-01-07T10:34:49.054Z,54286.72
2023-01-07T10:37:35.547Z,54406.66
2023-01-07T10:40:26.886Z,54280.50
2023-01-07T10:43:08.554Z,54284.66
2023-01-07T10:45:53.857Z,54307.38
2023-01-07T10:48:23.286Z,54280.50
2023-01-07T10:51:04.931Z,54303.25
2023-01-07T10:53:41.232Z,54278.44
2023-01-07T10:56:13.722Z,54274.31
2023-01-07T10:58:42.561Z,54317.72
2023-01-07T11:01:17.047Z,54266.03
2023-01-07T11:03:43.847Z,54303.25
2023-01-07T11:06:12.711Z,54261.91
2023-01-07T11:08:40.660Z,54332.22
2023-01-07T11:11:12.966Z,54263.97
2023-01-07T11:13:40.811Z,54257.75
2023-01-07T11:16:10.608Z,54344.63
2023-01-07T11:18:46.270Z,54303.25
2023-01-07T11:21:43.129Z,54266.03
2023-01-07T11:23:59.094Z,54292.91
2023-01-07T11:26:26.875Z,54268.09
2023-01-07T11:28:59.075Z,54243.28
2023-01-07T11:31:48.592Z,54282.56
2023-01-07T11:34:27.923Z,54379.78
2023-01-07T11:36:54.549Z,54266.03
2023-01-07T11:39:32.964Z,54268.09
2023-01-07T11:41:59.436Z,54305.31
2023-01-07T11:44:26.153Z,54270.16
2023-01-07T11:46:53.928Z,54294.97
2023-01-07T11:49:30.742Z,54251.56
2023-01-07T11:51:57.416Z,54274.31
2023-01-07T11:54:25.896Z,54288.78
2023-01-07T11:56:54.800Z,54280.50
2023-01-07T11:59:29.870Z,54290.84
2023-01-07T12:01:59.338Z,54311.53
2023-01-07T12:04:36.921Z,54276.38
2023-01-07T12:07:12.283Z,54286.72
2023-01-07T12:09:40.385Z,54334.28
2023-01-07T12:12:34.211Z,54328.06
2023-01-07T12:15:02.796Z,54352.88
2023-01-07T12:17:31.375Z,54350.81
2023-01-07T12:20:33.032Z,54290.84
2023-01-07T12:23:18.197Z,54309.47
2023-01-07T12:25:59.668Z,54336.34
2023-01-07T12:28:46.383Z,54266.03
2023-01-07T12:31:28.457Z,54294.97
2023-01-07T12:34:16.434Z,54309.47
2023-01-07T12:37:01.525Z,54297.06
2023-01-07T12:39:35.057Z,54224.69
2023-01-07T12:42:09.719Z,54292.91
2023-01-07T12:44:41.134Z,54361.16
2023-01-07T12:47:32.569Z,54222.59
2023-01-07T12:50:06.877Z,54307.38
2023-01-07T12:52:39.248Z,54319.81
2023-01-07T12:55:30.662Z,54284.66
2023-01-07T12:58:23.336Z,54334.28
2023-01-07T13:00:59.712Z,54377.69
2023-01-07T13:03:36.894Z,54274.31
2023-01-07T13:06:20.351Z,54284.66
2023-01-07T13:08:52.939Z,54292.91
2023-01-07T13:11:51.039Z,54280.50
2023-01-07T13:14:25.746Z,54259.84
2023-01-07T13:16:52.169Z,54359.09
2023-01-07T13:19:18.567Z,54245.34
2023-01-07T13:21:46.931Z,54274.31
2023-01-07T13:24:56.559Z,54249.50
2023-01-07T13:27:38.498Z,54243.28
2023-01-07T13:30:14.199Z,54261.91
2023-01-07T13:33:10.558Z,54245.34
2023-01-07T13:36:07.240Z,54354.94
2023-01-07T13:38:55.686Z,54245.34
2023-01-07T13:41:58.598Z,54220.53
2023-01-07T13:44:37.227Z,54232.94
2023-01-07T13:47:04.439Z,54224.69
2023-01-07T13:49:32.637Z,54241.22
2023-01-07T13:52:15.554Z,54259.84
2023-01-07T13:54:48.023Z,54214.34
2023-01-07T13:57:23.761Z,54272.25
2023-01-07T13:59:52.690Z,54241.22
2023-01-07T14:02:21.636Z,54214.34
2023-01-07T14:04:50.743Z,54206.06
2023-01-07T14:07:18.306Z,54241.22
2023-01-07T14:09:45.342Z,54241.22
2023-01-07T14:12:32.919Z,54232.94
2023-01-07T14:15:37.009Z,54230.88
2023-01-07T14:18:17.944Z,54294.97
2023-01-07T14:20:46.151Z,54251.56
2023-01-07T14:23:28.015Z,54241.22
2023-01-07T14:26:13.937Z,54263.97
2023-01-07T14:28:59.868Z,54259.84
2023-01-07T14:31:29.063Z,54261.91
2023-01-07T14:33:58.678Z,54230.88
2023-01-07T14:37:09.802Z,54253.63
2023-01-07T14:39:44.440Z,54232.94
2023-01-07T14:42:20.157Z,54247.44
2023-01-07T14:44:47.201Z,54212.28
2023-01-07T14:47:14.866Z,54232.94
2023-01-07T14:49:57.365Z,54220.53
2023-01-07T14:52:55.652Z,54201.94
2023-01-07T14:55:45.907Z,54299.13
2023-01-07T14:58:30.890Z,54187.47
2023-01-07T15:01:24.774Z,54197.78
2023-01-07T15:04:10.501Z,54208.13
2023-01-07T15:06:39.365Z,54195.72
2023-01-07T15:09:27.643Z,54166.78
2023-01-07T15:12:15.296Z,54212.28
2023-01-07T15:15:18.753Z,54199.88
2023-01-07T15:17:45.498Z,54197.78
2023-01-07T15:20:11.983Z,54166.78
2023-01-07T15:23:03.179Z,54164.72
2023-01-07T15:25:37.954Z,54175.06
2023-01-07T15:28:04.263Z,54172.97
2023-01-07T15:30:30.649Z,54218.47
2023-01-07T15:33:06.410Z,54168.84
2023-01-07T15:35:34.061Z,54164.72
2023-01-07T15:38:02.842Z,54162.66
2023-01-07T15:40:29.350Z,54160.56
2023-01-07T15:42:56.458Z,54162.66
2023-01-07T15:45:23.520Z,54154.38
2023-01-07T15:47:50.221Z,54158.50
2023-01-07T15:50:33.861Z,54170.91
2023-01-07T15:53:00.419Z,54158.50
2023-01-07T15:55:26.744Z,54146.09
2023-01-07T15:57:54.834Z,54164.72
2023-01-07T16:00:21.661Z,54119.22
2023-01-07T16:02:48.230Z,54177.13
2023-01-07T16:05:14.956Z,54152.31
2023-01-07T16:07:41.285Z,54156.44
2023-01-07T16:10:18.008Z,54137.84
2023-01-07T16:12:47.659Z,54133.69
2023-01-07T16:15:41.440Z,54156.44
2023-01-07T16:18:11.214Z,54146.09
2023-01-07T16:20:38.467Z,54187.47
2023-01-07T16:23:07.887Z,54133.69
2023-01-07T16:25:44.371Z,54146.09
2023-01-07T16:28:14.624Z,54139.91
2023-01-07T16:30:40.904Z,54139.91
2023-01-07T16:33:07.301Z,54152.31
2023-01-07T16:35:33.762Z,54141.97
2023-01-07T16:38:03.623Z,54133.69
2023-01-07T16:40:34.994Z,54135.75
2023-01-07T16:43:01.545Z,54148.16
2023-01-07T16:45:29.139Z,54150.25
2023-01-07T16:47:59.606Z,54160.56
2023-01-07T16:50:29.562Z,54127.50
2023-01-07T16:52:56.166Z,54127.50
2023-01-07T16:55:41.380Z,54137.84
2023-01-07T16:58:15.395Z,54150.25
2023-01-07T17:00:47.985Z,54133.69
2023-01-07T17:03:14.359Z,54121.28
2023-01-07T17:05:40.673Z,54146.09
2023-01-07T17:08:08.216Z,54146.09
2023-01-07T17:10:38.346Z,54162.66
2023-01-07T17:13:04.613Z,54150.25
2023-01-07T17:15:35.777Z,54125.44
2023-01-07T17:18:11.343Z,54158.50
2023-01-07T17:20:50.613Z,54172.97
2023-01-07T17:23:26.174Z,54146.09
2023-01-07T17:26:12.840Z,54119.22
2023-01-07T17:29:06.110Z,54117.16
2023-01-07T17:31:32.524Z,54152.31
2023-01-07T17:33:58.860Z,54141.97
2023-01-07T17:36:25.893Z,54150.25
2023-01-07T17:38:52.397Z,54135.75
2023-01-07T17:41:40.853Z,54150.25
2023-01-07T17:44:08.131Z,54144.03
2023-01-07T17:46:34.447Z,54133.69
2023-01-07T17:49:03.796Z,54160.56
2023-01-07T17:51:37.457Z,54170.91
2023-01-07T17:54:03.760Z,54164.72
2023-01-07T17:56:30.100Z,54123.34
2023-01-07T17:58:56.428Z,54135.75
2023-01-07T18:01:23.401Z,54166.78
2023-01-07T18:03:53.798Z,54135.75
2023-01-07T18:06:21.326Z,54139.91
2023-01-07T18:08:48.148Z,54137.84
2023-01-07T18:11:33.641Z,54156.44
2023-01-07T18:14:00.054Z,54152.31
2023-01-07T18:16:26.714Z,54139.91
2023-01-07T18:18:53.051Z,54172.97
2023-01-07T18:21:19.366Z,54119.22
2023-01-07T18:23:45.961Z,54141.97
2023-01-07T18:26:13.249Z,54164.72
2023-01-07T18:28:39.790Z,54183.31
2023-01-07T18:31:06.508Z,54148.16
2023-01-07T18:33:34.667Z,54162.66
2023-01-07T18:36:01.508Z,54166.78
2023-01-07T18:38:27.844Z,54152.31
2023-01-07T18:40:54.601Z,54135.75
2023-01-07T18:43:21.209Z,54133.69
2023-01-07T18:45:48.110Z,54154.38
2023-01-07T18:48:15.195Z,54158.50
2023-01-07T18:50:42.066Z,54135.75
2023-01-07T18:53:09.476Z,54137.84
2023-01-07T18:55:36.255Z,54141.97
2023-01-07T18:58:02.570Z,54121.28
2023-01-07T19:00:30.317Z,54181.25
2023-01-07T19:02:58.232Z,54152.31
2023-01-07T19:05:24.887Z,54150.25
2023-01-07T19:07:51.216Z,54148.16
2023-01-07T19:10:17.576Z,54110.94
2023-01-07T19:12:43.877Z,54117.16
2023-01-07T19:15:10.422Z,54133.69
2023-01-07T19:17:36.732Z,54129.56
2023-01-07T19:20:03.224Z,54144.03
2023-01-07T19:22:29.549Z,54146.09
2023-01-07T19:24:56.752Z,54119.22
2023-01-07T19:27:23.797Z,54148.16
2023-01-07T19:29:50.080Z,54191.59
2023-01-07T19:32:16.502Z,54172.97
2023-01-07T19:34:42.814Z,54185.38
2023-01-07T19:37:09.114Z,54156.44
2023-01-07T19:39:35.470Z,54150.25
2023-01-07T19:42:01.817Z,54133.69
2023-01-07T19:44:28.119Z,54158.50
2023-01-07T19:46:54.415Z,54150.25
2023-01-07T19:49:20.712Z,54137.84
2023-01-07T19:51:47.033Z,54187.47
2023-01-07T19:54:15.829Z,54179.19
2023-01-07T19:56:43.552Z,54156.44
2023-01-07T19:59:10.565Z,54158.50
2023-01-07T20:01:38.688Z,54158.50
2023-01-07T20:04:05.982Z,54133.69
2023-01-07T20:06:35.281Z,54141.97
2023-01-07T20:09:07.782Z,54139.91
2023-01-07T20:11:34.122Z,54160.56
2023-01-07T20:14:00.432Z,54150.25
2023-01-07T20:16:27.678Z,54162.66
2023-01-07T20:18:54.690Z,54162.66
2023-01-07T20:21:21.689Z,54162.66
2023-01-07T20:23:48.152Z,54175.06
2023-01-07T20:26:16.058Z,54133.69
2023-01-07T20:28:42.579Z,54154.38
2023-01-07T20:31:10.875Z,54144.03
2023-01-07T20:33:37.157Z,54152.31
2023-01-07T20:36:10.757Z,54137.84
2023-01-07T20:38:37.155Z,54117.16
2023-01-07T20:41:04.602Z,54168.84
2023-01-07T20:43:34.752Z,54146.09
2023-01-07T20:46:01.824Z,54146.09
2023-01-07T20:48:28.518Z,54146.09
2023-01-07T20:50:54.831Z,54139.91
2023-01-07T20:53:21.188Z,54119.22
2023-01-07T20:55:49.250Z,54162.66
2023-01-07T20:58:15.528Z,54139.91
2023-01-07T21:00:41.908Z,54148.16
2023-01-07T21:03:08.492Z,54144.03
2023-01-07T21:05:34.798Z,54141.97
2023-01-07T21:08:01.125Z,54146.09
2023-01-07T21:10:27.428Z,54181.25
2023-01-07T21:12:53.738Z,54152.31
2023-01-07T21:15:20.069Z,54166.78
2023-01-07T21:17:46.351Z,54175.06
2023-01-07T21:20:13.430Z,54139.91
2023-01-07T21:22:39.738Z,54152.31
2023-01-07T21:25:09.120Z,54129.56
2023-01-07T21:27:35.529Z,54141.97
2023-01-07T21:30:03.766Z,54150.25
2023-01-07T21:32:32.213Z,54168.84
2023-01-07T21:34:58.564Z,54137.84
2023-01-07T21:37:24.908Z,54152.31
2023-01-07T21:39:51.448Z,54148.16
2023-01-07T21:42:17.756Z,54172.97
2023-01-07T21:44:44.222Z,54146.09
2023-01-07T21:47:10.555Z,54146.09
2023-01-07T21:49:36.830Z,54164.72
2023-01-07T21:52:03.127Z,54137.84
2023-01-07T21:54:29.488Z,54154.38
2023-01-07T21:56:55.769Z,54179.19
2023-01-07T21:59:22.513Z,54187.47
2023-01-07T22:01:49.241Z,54177.13
2023-01-07T22:04:15.704Z,54162.66
2023-01-07T22:06:42.088Z,54162.66
2023-01-07T22:09:08.933Z,54179.19
2023-01-07T22:11:35.686Z,54156.44
2023-01-07T22:14:02.076Z,54160.56
2023-01-07T22:16:29.361Z,54160.56
2023-01-07T22:18:56.950Z,54141.97
2023-01-07T22:21:23.315Z,54175.06
2023-01-07T22:23:49.802Z,54146.09
2023-01-07T22:26:16.479Z,54179.19
2023-01-07T22:28:42.790Z,54179.19
2023-01-07T22:31:11.342Z,54179.19
2023-01-07T22:33:37.680Z,54177.13
2023-01-07T22:36:04.295Z,54162.66
2023-01-07T22:38:30.592Z,54208.13
2023-01-07T22:40:56.943Z,54172.97
2023-01-07T22:43:24.045Z,54166.78
2023-01-07T22:45:50.355Z,54166.78
2023-01-07T22:48:16.997Z,54137.84
2023-01-07T22:50:43.316Z,54172.97
2023-01-07T22:53:09.616Z,54179.19
2023-01-07T22:55:35.912Z,54146.09
2023-01-07T22:58:02.215Z,54170.91
2023-01-07T23:00:38.344Z,54141.97
2023-01-07T23:03:04.877Z,54170.91
2023-01-07T23:05:31.182Z,54166.78
2023-01-07T23:07:57.709Z,54170.91
2023-01-07T23:10:24.024Z,54170.91
2023-01-07T23:12:50.307Z,54185.38
2023-01-07T23:15:16.611Z,54193.66
2023-01-07T23:17:42.914Z,54148.16
2023-01-07T23:20:09.293Z,54187.47
2023-01-07T23:22:35.583Z,54199.88
2023-01-07T23:25:01.902Z,54148.16
2023-01-07T23:27:28.173Z,54189.53
2023-01-07T23:29:54.539Z,54160.56
2023-01-07T23:32:21.444Z,54177.13
2023-01-07T23:34:47.744Z,54197.78
2023-01-07T23:37:14.077Z,54199.88
2023-01-07T23:39:40.419Z,54206.06
2023-01-07T23:42:06.700Z,54189.53
2023-01-07T23:44:33.334Z,54220.53
2023-01-07T23:46:59.666Z,54168.84
2023-01-07T23:49:27.309Z,54199.88
2023-01-07T23:51:53.695Z,54187.47
2023-01-07T23:54:20.043Z,54183.31
2023-01-07T23:56:46.367Z,54168.84
2023-01-07T23:59:12.865Z,54185.38
